sensor_id;sensor_type;location;lat;lon;timestamp;P1;durP1;ratioP1;P2;durP2;ratioP2
10721;SDS011;5412;59.450;18.124;2023-07-22T00:02:22;2.85;;;1.40;;
10721;SDS011;5412;59.450;18.124;2023-07-22T00:04:48;2.40;;;1.40;;
10721;SDS011;5412;59.450;18.124;2023-07-22T00:07:14;4.15;;;1.23;;
10721;SDS011;5412;59.450;18.124;2023-07-22T00:09:40;3.35;;;1.40;;
10721;SDS011;5412;59.450;18.124;2023-07-22T00:12:07;1.30;;;1.00;;
10721;SDS011;5412;59.450;18.124;2023-07-22T00:14:33;2.17;;;1.08;;
10721;SDS011;5412;59.450;18.124;2023-07-22T00:17:01;1.55;;;1.10;;
10721;SDS011;5412;59.450;18.124;2023-07-22T00:19:27;5.60;;;1.20;;
10721;SDS011;5412;59.450;18.124;2023-07-22T00:21:52;1.63;;;1.10;;
10721;SDS011;5412;59.450;18.124;2023-07-22T00:24:18;3.40;;;1.27;;
10721;SDS011;5412;59.450;18.124;2023-07-22T00:26:44;2.60;;;1.15;;
10721;SDS011;5412;59.450;18.124;2023-07-22T00:29:09;1.67;;;1.27;;
10721;SDS011;5412;59.450;18.124;2023-07-22T00:31:35;3.72;;;1.05;;
10721;SDS011;5412;59.450;18.124;2023-07-22T00:34:01;5.60;;;1.63;;
10721;SDS011;5412;59.450;18.124;2023-07-22T00:36:26;2.10;;;1.00;;
10721;SDS011;5412;59.450;18.124;2023-07-22T00:38:54;1.42;;;1.15;;
10721;SDS011;5412;59.450;18.124;2023-07-22T00:41:19;5.50;;;1.40;;
10721;SDS011;5412;59.450;18.124;2023-07-22T00:43:45;1.77;;;1.05;;
10721;SDS011;5412;59.450;18.124;2023-07-22T00:46:11;4.13;;;1.08;;
10721;SDS011;5412;59.450;18.124;2023-07-22T00:48:37;2.22;;;0.95;;
10721;SDS011;5412;59.450;18.124;2023-07-22T00:51:03;2.08;;;1.48;;
10721;SDS011;5412;59.450;18.124;2023-07-22T00:53:30;3.78;;;1.13;;
10721;SDS011;5412;59.450;18.124;2023-07-22T00:55:56;4.63;;;1.02;;
10721;SDS011;5412;59.450;18.124;2023-07-22T00:58:21;2.95;;;1.30;;
10721;SDS011;5412;59.450;18.124;2023-07-22T01:00:47;2.40;;;1.13;;
10721;SDS011;5412;59.450;18.124;2023-07-22T01:03:13;2.95;;;1.40;;
10721;SDS011;5412;59.450;18.124;2023-07-22T01:05:39;5.25;;;1.10;;
10721;SDS011;5412;59.450;18.124;2023-07-22T01:08:06;2.00;;;1.10;;
10721;SDS011;5412;59.450;18.124;2023-07-22T01:10:32;4.55;;;1.10;;
10721;SDS011;5412;59.450;18.124;2023-07-22T01:12:58;9.45;;;1.45;;
10721;SDS011;5412;59.450;18.124;2023-07-22T01:15:24;1.20;;;1.10;;
10721;SDS011;5412;59.450;18.124;2023-07-22T01:17:50;2.55;;;0.90;;
10721;SDS011;5412;59.450;18.124;2023-07-22T01:20:16;2.40;;;1.00;;
10721;SDS011;5412;59.450;18.124;2023-07-22T01:22:50;2.30;;;1.08;;
10721;SDS011;5412;59.450;18.124;2023-07-22T01:25:17;4.97;;;1.00;;
10721;SDS011;5412;59.450;18.124;2023-07-22T01:27:51;2.72;;;1.10;;
10721;SDS011;5412;59.450;18.124;2023-07-22T01:30:17;1.23;;;0.98;;
10721;SDS011;5412;59.450;18.124;2023-07-22T01:32:44;3.13;;;1.38;;
10721;SDS011;5412;59.450;18.124;2023-07-22T01:35:10;1.50;;;0.95;;
10721;SDS011;5412;59.450;18.124;2023-07-22T01:37:36;1.83;;;1.15;;
10721;SDS011;5412;59.450;18.124;2023-07-22T01:40:02;3.05;;;1.40;;
10721;SDS011;5412;59.450;18.124;2023-07-22T01:42:40;1.27;;;0.90;;
10721;SDS011;5412;59.450;18.124;2023-07-22T01:45:07;3.13;;;1.13;;
10721;SDS011;5412;59.450;18.124;2023-07-22T01:47:34;8.55;;;1.20;;
10721;SDS011;5412;59.450;18.124;2023-07-22T01:50:01;3.25;;;0.93;;
10721;SDS011;5412;59.450;18.124;2023-07-22T01:52:27;5.20;;;1.52;;
10721;SDS011;5412;59.450;18.124;2023-07-22T01:54:53;4.70;;;1.60;;
10721;SDS011;5412;59.450;18.124;2023-07-22T01:57:19;4.47;;;1.00;;
10721;SDS011;5412;59.450;18.124;2023-07-22T01:59:45;1.30;;;1.10;;
10721;SDS011;5412;59.450;18.124;2023-07-22T02:02:10;5.45;;;1.00;;
10721;SDS011;5412;59.450;18.124;2023-07-22T02:04:36;6.60;;;1.17;;
10721;SDS011;5412;59.450;18.124;2023-07-22T02:07:02;1.65;;;0.90;;
10721;SDS011;5412;59.450;18.124;2023-07-22T02:09:28;1.92;;;1.00;;
10721;SDS011;5412;59.450;18.124;2023-07-22T02:11:54;1.58;;;0.88;;
10721;SDS011;5412;59.450;18.124;2023-07-22T02:14:19;2.65;;;0.80;;
10721;SDS011;5412;59.450;18.124;2023-07-22T02:16:45;4.90;;;1.00;;
10721;SDS011;5412;59.450;18.124;2023-07-22T02:19:11;4.05;;;1.17;;
10721;SDS011;5412;59.450;18.124;2023-07-22T02:21:36;3.38;;;1.83;;
10721;SDS011;5412;59.450;18.124;2023-07-22T02:24:02;1.38;;;0.80;;
10721;SDS011;5412;59.450;18.124;2023-07-22T02:26:28;5.15;;;1.20;;
10721;SDS011;5412;59.450;18.124;2023-07-22T02:28:54;3.70;;;1.00;;
10721;SDS011;5412;59.450;18.124;2023-07-22T02:31:19;2.35;;;0.93;;
10721;SDS011;5412;59.450;18.124;2023-07-22T02:33:47;5.07;;;1.10;;
10721;SDS011;5412;59.450;18.124;2023-07-22T02:36:13;2.13;;;1.17;;
10721;SDS011;5412;59.450;18.124;2023-07-22T02:38:39;4.32;;;1.52;;
10721;SDS011;5412;59.450;18.124;2023-07-22T02:41:05;1.58;;;1.05;;
10721;SDS011;5412;59.450;18.124;2023-07-22T02:43:33;4.35;;;0.95;;
10721;SDS011;5412;59.450;18.124;2023-07-22T02:46:00;6.72;;;0.90;;
10721;SDS011;5412;59.450;18.124;2023-07-22T02:48:28;4.68;;;1.05;;
10721;SDS011;5412;59.450;18.124;2023-07-22T02:50:54;3.78;;;1.05;;
10721;SDS011;5412;59.450;18.124;2023-07-22T02:53:20;2.83;;;1.00;;
10721;SDS011;5412;59.450;18.124;2023-07-22T02:55:46;1.58;;;0.88;;
10721;SDS011;5412;59.450;18.124;2023-07-22T02:58:12;0.63;;;0.63;;
10721;SDS011;5412;59.450;18.124;2023-07-22T03:00:38;1.45;;;0.90;;
10721;SDS011;5412;59.450;18.124;2023-07-22T03:03:03;2.58;;;1.05;;
10721;SDS011;5412;59.450;18.124;2023-07-22T03:05:30;1.00;;;0.70;;
10721;SDS011;5412;59.450;18.124;2023-07-22T03:07:57;0.95;;;0.80;;
10721;SDS011;5412;59.450;18.124;2023-07-22T03:10:23;2.47;;;0.88;;
10721;SDS011;5412;59.450;18.124;2023-07-22T03:12:53;2.53;;;1.25;;
10721;SDS011;5412;59.450;18.124;2023-07-22T03:15:21;2.15;;;1.00;;
10721;SDS011;5412;59.450;18.124;2023-07-22T03:17:47;2.45;;;0.80;;
10721;SDS011;5412;59.450;18.124;2023-07-22T03:20:14;3.85;;;0.82;;
10721;SDS011;5412;59.450;18.124;2023-07-22T03:22:42;3.83;;;1.25;;
10721;SDS011;5412;59.450;18.124;2023-07-22T03:25:08;1.92;;;1.10;;
10721;SDS011;5412;59.450;18.124;2023-07-22T03:27:35;3.17;;;1.00;;
10721;SDS011;5412;59.450;18.124;2023-07-22T03:30:02;1.58;;;0.80;;
10721;SDS011;5412;59.450;18.124;2023-07-22T03:32:29;1.67;;;1.23;;
10721;SDS011;5412;59.450;18.124;2023-07-22T03:34:54;2.53;;;0.85;;
10721;SDS011;5412;59.450;18.124;2023-07-22T03:37:20;2.00;;;0.80;;
10721;SDS011;5412;59.450;18.124;2023-07-22T03:39:46;1.75;;;0.70;;
10721;SDS011;5412;59.450;18.124;2023-07-22T03:42:11;2.60;;;1.00;;
10721;SDS011;5412;59.450;18.124;2023-07-22T03:44:37;2.80;;;1.23;;
10721;SDS011;5412;59.450;18.124;2023-07-22T03:47:03;1.60;;;0.85;;
10721;SDS011;5412;59.450;18.124;2023-07-22T03:49:29;1.67;;;0.80;;
10721;SDS011;5412;59.450;18.124;2023-07-22T03:51:55;2.13;;;0.95;;
10721;SDS011;5412;59.450;18.124;2023-07-22T03:54:20;5.05;;;1.30;;
10721;SDS011;5412;59.450;18.124;2023-07-22T03:56:46;3.53;;;1.33;;
10721;SDS011;5412;59.450;18.124;2023-07-22T03:59:12;2.67;;;1.10;;
10721;SDS011;5412;59.450;18.124;2023-07-22T04:01:37;1.83;;;0.70;;
10721;SDS011;5412;59.450;18.124;2023-07-22T04:04:03;3.63;;;1.08;;
10721;SDS011;5412;59.450;18.124;2023-07-22T04:06:29;5.38;;;1.40;;
10721;SDS011;5412;59.450;18.124;2023-07-22T04:08:55;4.18;;;1.15;;
10721;SDS011;5412;59.450;18.124;2023-07-22T04:11:20;2.08;;;0.80;;
10721;SDS011;5412;59.450;18.124;2023-07-22T04:13:46;1.02;;;0.77;;
10721;SDS011;5412;59.450;18.124;2023-07-22T04:16:13;2.80;;;0.80;;
10721;SDS011;5412;59.450;18.124;2023-07-22T04:18:39;2.10;;;0.88;;
10721;SDS011;5412;59.450;18.124;2023-07-22T04:21:05;1.45;;;1.00;;
10721;SDS011;5412;59.450;18.124;2023-07-22T04:23:30;1.05;;;0.98;;
10721;SDS011;5412;59.450;18.124;2023-07-22T04:25:58;3.42;;;0.88;;
10721;SDS011;5412;59.450;18.124;2023-07-22T04:28:26;2.83;;;1.15;;
10721;SDS011;5412;59.450;18.124;2023-07-22T04:30:56;2.63;;;0.80;;
10721;SDS011;5412;59.450;18.124;2023-07-22T04:33:23;2.85;;;1.10;;
10721;SDS011;5412;59.450;18.124;2023-07-22T04:35:50;18.00;;;1.63;;
10721;SDS011;5412;59.450;18.124;2023-07-22T04:38:18;2.13;;;1.05;;
10721;SDS011;5412;59.450;18.124;2023-07-22T04:40:44;1.98;;;0.90;;
10721;SDS011;5412;59.450;18.124;2023-07-22T04:43:09;3.10;;;1.02;;
10721;SDS011;5412;59.450;18.124;2023-07-22T04:45:35;2.58;;;0.90;;
10721;SDS011;5412;59.450;18.124;2023-07-22T04:48:01;2.15;;;0.90;;
10721;SDS011;5412;59.450;18.124;2023-07-22T04:50:27;1.63;;;0.90;;
10721;SDS011;5412;59.450;18.124;2023-07-22T04:52:53;6.10;;;0.95;;
10721;SDS011;5412;59.450;18.124;2023-07-22T04:55:19;3.60;;;0.98;;
10721;SDS011;5412;59.450;18.124;2023-07-22T04:57:45;1.77;;;0.98;;
10721;SDS011;5412;59.450;18.124;2023-07-22T05:00:11;2.25;;;0.70;;
10721;SDS011;5412;59.450;18.124;2023-07-22T05:02:44;3.42;;;0.90;;
10721;SDS011;5412;59.450;18.124;2023-07-22T05:05:15;2.72;;;0.60;;
10721;SDS011;5412;59.450;18.124;2023-07-22T05:07:41;1.73;;;1.10;;
10721;SDS011;5412;59.450;18.124;2023-07-22T05:10:07;5.00;;;1.67;;
10721;SDS011;5412;59.450;18.124;2023-07-22T05:12:39;1.42;;;0.77;;
10721;SDS011;5412;59.450;18.124;2023-07-22T05:15:06;2.40;;;1.00;;
10721;SDS011;5412;59.450;18.124;2023-07-22T05:17:32;0.77;;;0.75;;
10721;SDS011;5412;59.450;18.124;2023-07-22T05:19:58;2.20;;;0.82;;
10721;SDS011;5412;59.450;18.124;2023-07-22T05:22:24;2.65;;;0.90;;
10721;SDS011;5412;59.450;18.124;2023-07-22T05:24:50;2.58;;;1.00;;
10721;SDS011;5412;59.450;18.124;2023-07-22T05:27:16;3.75;;;0.80;;
10721;SDS011;5412;59.450;18.124;2023-07-22T05:29:42;3.25;;;0.90;;
10721;SDS011;5412;59.450;18.124;2023-07-22T05:32:08;2.20;;;0.93;;
10721;SDS011;5412;59.450;18.124;2023-07-22T05:34:34;5.47;;;1.20;;
10721;SDS011;5412;59.450;18.124;2023-07-22T05:37:00;1.73;;;0.98;;
10721;SDS011;5412;59.450;18.124;2023-07-22T05:39:25;5.57;;;1.23;;
10721;SDS011;5412;59.450;18.124;2023-07-22T05:41:51;3.75;;;1.00;;
10721;SDS011;5412;59.450;18.124;2023-07-22T05:44:17;4.85;;;1.02;;
10721;SDS011;5412;59.450;18.124;2023-07-22T05:46:43;2.80;;;0.90;;
10721;SDS011;5412;59.450;18.124;2023-07-22T05:49:09;1.38;;;0.90;;
10721;SDS011;5412;59.450;18.124;2023-07-22T05:51:36;2.00;;;0.82;;
10721;SDS011;5412;59.450;18.124;2023-07-22T05:54:02;4.35;;;1.10;;
10721;SDS011;5412;59.450;18.124;2023-07-22T05:56:28;4.97;;;1.13;;
10721;SDS011;5412;59.450;18.124;2023-07-22T05:58:53;6.30;;;1.00;;
10721;SDS011;5412;59.450;18.124;2023-07-22T06:01:19;2.63;;;1.17;;
10721;SDS011;5412;59.450;18.124;2023-07-22T06:03:45;5.07;;;1.25;;
10721;SDS011;5412;59.450;18.124;2023-07-22T06:06:11;2.45;;;0.90;;
10721;SDS011;5412;59.450;18.124;2023-07-22T06:08:37;3.55;;;0.75;;
10721;SDS011;5412;59.450;18.124;2023-07-22T06:11:02;3.13;;;1.23;;
10721;SDS011;5412;59.450;18.124;2023-07-22T06:13:28;3.78;;;1.00;;
10721;SDS011;5412;59.450;18.124;2023-07-22T06:15:54;2.05;;;0.80;;
10721;SDS011;5412;59.450;18.124;2023-07-22T06:18:20;4.53;;;1.20;;
10721;SDS011;5412;59.450;18.124;2023-07-22T06:20:45;4.55;;;0.70;;
10721;SDS011;5412;59.450;18.124;2023-07-22T06:23:11;3.95;;;1.25;;
10721;SDS011;5412;59.450;18.124;2023-07-22T06:25:37;4.63;;;1.00;;
10721;SDS011;5412;59.450;18.124;2023-07-22T06:28:03;4.43;;;0.95;;
10721;SDS011;5412;59.450;18.124;2023-07-22T06:30:29;3.58;;;1.10;;
10721;SDS011;5412;59.450;18.124;2023-07-22T06:32:55;4.70;;;1.10;;
10721;SDS011;5412;59.450;18.124;2023-07-22T06:35:20;3.55;;;1.25;;
10721;SDS011;5412;59.450;18.124;2023-07-22T06:37:46;3.15;;;1.05;;
10721;SDS011;5412;59.450;18.124;2023-07-22T06:40:12;4.18;;;1.13;;
10721;SDS011;5412;59.450;18.124;2023-07-22T06:42:37;2.63;;;0.77;;
10721;SDS011;5412;59.450;18.124;2023-07-22T06:45:04;1.77;;;0.93;;
10721;SDS011;5412;59.450;18.124;2023-07-22T06:47:30;3.10;;;0.90;;
10721;SDS011;5412;59.450;18.124;2023-07-22T06:49:56;3.28;;;1.02;;
10721;SDS011;5412;59.450;18.124;2023-07-22T06:52:22;5.15;;;0.95;;
10721;SDS011;5412;59.450;18.124;2023-07-22T06:54:48;1.83;;;0.95;;
10721;SDS011;5412;59.450;18.124;2023-07-22T06:57:13;5.93;;;1.05;;
10721;SDS011;5412;59.450;18.124;2023-07-22T06:59:39;1.77;;;1.00;;
10721;SDS011;5412;59.450;18.124;2023-07-22T07:02:05;2.00;;;0.98;;
10721;SDS011;5412;59.450;18.124;2023-07-22T07:04:30;1.90;;;0.70;;
10721;SDS011;5412;59.450;18.124;2023-07-22T07:06:56;1.50;;;0.80;;
10721;SDS011;5412;59.450;18.124;2023-07-22T07:09:22;3.22;;;1.13;;
10721;SDS011;5412;59.450;18.124;2023-07-22T07:11:48;4.28;;;1.05;;
10721;SDS011;5412;59.450;18.124;2023-07-22T07:14:14;2.80;;;0.98;;
10721;SDS011;5412;59.450;18.124;2023-07-22T07:16:39;2.10;;;0.93;;
10721;SDS011;5412;59.450;18.124;2023-07-22T07:19:05;3.17;;;1.17;;
10721;SDS011;5412;59.450;18.124;2023-07-22T07:21:31;2.85;;;1.33;;
10721;SDS011;5412;59.450;18.124;2023-07-22T07:23:57;1.60;;;1.10;;
10721;SDS011;5412;59.450;18.124;2023-07-22T07:26:23;2.20;;;0.93;;
10721;SDS011;5412;59.450;18.124;2023-07-22T07:28:49;3.95;;;1.08;;
10721;SDS011;5412;59.450;18.124;2023-07-22T07:31:16;1.05;;;0.75;;
10721;SDS011;5412;59.450;18.124;2023-07-22T07:33:42;3.97;;;1.00;;
10721;SDS011;5412;59.450;18.124;2023-07-22T07:36:07;2.05;;;1.00;;
10721;SDS011;5412;59.450;18.124;2023-07-22T07:38:34;1.08;;;0.70;;
10721;SDS011;5412;59.450;18.124;2023-07-22T07:41:00;3.50;;;1.30;;
10721;SDS011;5412;59.450;18.124;2023-07-22T07:43:31;3.13;;;1.00;;
10721;SDS011;5412;59.450;18.124;2023-07-22T07:46:16;4.38;;;1.10;;
10721;SDS011;5412;59.450;18.124;2023-07-22T07:48:47;4.63;;;1.13;;
10721;SDS011;5412;59.450;18.124;2023-07-22T07:51:15;4.43;;;1.20;;
10721;SDS011;5412;59.450;18.124;2023-07-22T07:53:42;4.13;;;0.90;;
10721;SDS011;5412;59.450;18.124;2023-07-22T07:56:09;4.85;;;1.27;;
10721;SDS011;5412;59.450;18.124;2023-07-22T07:58:36;4.13;;;1.17;;
10721;SDS011;5412;59.450;18.124;2023-07-22T08:01:02;1.35;;;0.80;;
10721;SDS011;5412;59.450;18.124;2023-07-22T08:03:28;4.00;;;1.05;;
10721;SDS011;5412;59.450;18.124;2023-07-22T08:05:54;2.15;;;0.90;;
10721;SDS011;5412;59.450;18.124;2023-07-22T08:08:21;2.03;;;1.13;;
10721;SDS011;5412;59.450;18.124;2023-07-22T08:10:47;1.60;;;0.80;;
10721;SDS011;5412;59.450;18.124;2023-07-22T08:13:13;1.75;;;1.00;;
10721;SDS011;5412;59.450;18.124;2023-07-22T08:15:39;2.13;;;1.00;;
10721;SDS011;5412;59.450;18.124;2023-07-22T08:18:06;3.28;;;1.10;;
10721;SDS011;5412;59.450;18.124;2023-07-22T08:20:32;3.17;;;1.20;;
10721;SDS011;5412;59.450;18.124;2023-07-22T08:22:58;3.97;;;1.17;;
10721;SDS011;5412;59.450;18.124;2023-07-22T08:25:24;1.98;;;0.90;;
10721;SDS011;5412;59.450;18.124;2023-07-22T08:27:49;2.25;;;1.35;;
10721;SDS011;5412;59.450;18.124;2023-07-22T08:30:15;3.15;;;0.90;;
10721;SDS011;5412;59.450;18.124;2023-07-22T08:32:41;1.00;;;0.80;;
10721;SDS011;5412;59.450;18.124;2023-07-22T08:35:07;2.17;;;0.85;;
10721;SDS011;5412;59.450;18.124;2023-07-22T08:37:32;2.95;;;0.77;;
10721;SDS011;5412;59.450;18.124;2023-07-22T08:39:58;1.73;;;0.80;;
10721;SDS011;5412;59.450;18.124;2023-07-22T08:42:24;1.48;;;0.90;;
10721;SDS011;5412;59.450;18.124;2023-07-22T08:44:54;1.30;;;0.77;;
10721;SDS011;5412;59.450;18.124;2023-07-22T08:47:25;1.13;;;0.70;;
10721;SDS011;5412;59.450;18.124;2023-07-22T08:49:55;3.85;;;0.93;;
10721;SDS011;5412;59.450;18.124;2023-07-22T08:52:25;0.95;;;0.80;;
10721;SDS011;5412;59.450;18.124;2023-07-22T08:54:51;2.25;;;0.80;;
10721;SDS011;5412;59.450;18.124;2023-07-22T08:57:18;2.75;;;0.93;;
10721;SDS011;5412;59.450;18.124;2023-07-22T08:59:45;1.83;;;0.80;;
10721;SDS011;5412;59.450;18.124;2023-07-22T09:02:12;3.42;;;1.13;;
10721;SDS011;5412;59.450;18.124;2023-07-22T09:04:39;2.85;;;1.33;;
10721;SDS011;5412;59.450;18.124;2023-07-22T09:07:09;3.03;;;1.08;;
10721;SDS011;5412;59.450;18.124;2023-07-22T09:09:36;2.58;;;0.85;;
10721;SDS011;5412;59.450;18.124;2023-07-22T09:12:02;3.00;;;0.80;;
10721;SDS011;5412;59.450;18.124;2023-07-22T09:14:29;1.20;;;0.80;;
10721;SDS011;5412;59.450;18.124;2023-07-22T09:16:57;2.38;;;0.90;;
10721;SDS011;5412;59.450;18.124;2023-07-22T09:19:23;2.63;;;1.10;;
10721;SDS011;5412;59.450;18.124;2023-07-22T09:21:49;1.65;;;0.70;;
10721;SDS011;5412;59.450;18.124;2023-07-22T09:24:24;2.78;;;0.95;;
10721;SDS011;5412;59.450;18.124;2023-07-22T09:26:53;1.25;;;0.90;;
10721;SDS011;5412;59.450;18.124;2023-07-22T09:29:40;1.67;;;0.80;;
10721;SDS011;5412;59.450;18.124;2023-07-22T09:32:05;2.35;;;0.70;;
10721;SDS011;5412;59.450;18.124;2023-07-22T09:34:31;1.10;;;0.80;;
10721;SDS011;5412;59.450;18.124;2023-07-22T09:36:58;1.40;;;0.80;;
10721;SDS011;5412;59.450;18.124;2023-07-22T09:39:29;3.65;;;0.82;;
10721;SDS011;5412;59.450;18.124;2023-07-22T09:41:55;2.10;;;0.85;;
10721;SDS011;5412;59.450;18.124;2023-07-22T09:44:22;1.80;;;0.98;;
10721;SDS011;5412;59.450;18.124;2023-07-22T09:46:48;1.60;;;0.90;;
10721;SDS011;5412;59.450;18.124;2023-07-22T09:49:15;2.15;;;0.80;;
10721;SDS011;5412;59.450;18.124;2023-07-22T09:51:42;2.53;;;0.73;;
10721;SDS011;5412;59.450;18.124;2023-07-22T09:54:09;1.65;;;0.90;;
10721;SDS011;5412;59.450;18.124;2023-07-22T09:56:48;0.90;;;0.77;;
10721;SDS011;5412;59.450;18.124;2023-07-22T09:59:15;2.55;;;0.90;;
10721;SDS011;5412;59.450;18.124;2023-07-22T10:01:43;1.05;;;0.90;;
10721;SDS011;5412;59.450;18.124;2023-07-22T10:04:12;3.05;;;1.10;;
10721;SDS011;5412;59.450;18.124;2023-07-22T10:06:41;2.95;;;0.75;;
10721;SDS011;5412;59.450;18.124;2023-07-22T10:09:08;1.27;;;0.80;;
10721;SDS011;5412;59.450;18.124;2023-07-22T10:11:36;3.15;;;1.27;;
10721;SDS011;5412;59.450;18.124;2023-07-22T10:14:04;0.85;;;0.82;;
10721;SDS011;5412;59.450;18.124;2023-07-22T10:16:31;1.40;;;1.08;;
10721;SDS011;5412;59.450;18.124;2023-07-22T10:18:57;3.65;;;1.00;;
10721;SDS011;5412;59.450;18.124;2023-07-22T10:21:24;1.75;;;0.80;;
10721;SDS011;5412;59.450;18.124;2023-07-22T10:23:51;1.73;;;0.88;;
10721;SDS011;5412;59.450;18.124;2023-07-22T10:26:17;1.30;;;0.57;;
10721;SDS011;5412;59.450;18.124;2023-07-22T10:28:45;0.82;;;0.65;;
10721;SDS011;5412;59.450;18.124;2023-07-22T10:31:12;2.05;;;0.88;;
10721;SDS011;5412;59.450;18.124;2023-07-22T10:33:39;0.70;;;0.65;;
10721;SDS011;5412;59.450;18.124;2023-07-22T10:38:34;1.58;;;0.95;;
10721;SDS011;5412;59.450;18.124;2023-07-22T10:41:01;0.73;;;0.73;;
10721;SDS011;5412;59.450;18.124;2023-07-22T10:43:35;2.40;;;0.70;;
10721;SDS011;5412;59.450;18.124;2023-07-22T10:46:12;2.60;;;0.90;;
10721;SDS011;5412;59.450;18.124;2023-07-22T10:48:41;2.80;;;0.90;;
10721;SDS011;5412;59.450;18.124;2023-07-22T10:51:08;1.23;;;0.80;;
10721;SDS011;5412;59.450;18.124;2023-07-22T10:53:43;1.88;;;1.00;;
10721;SDS011;5412;59.450;18.124;2023-07-22T11:01:24;1.20;;;0.98;;
10721;SDS011;5412;59.450;18.124;2023-07-22T11:04:05;2.92;;;0.85;;
10721;SDS011;5412;59.450;18.124;2023-07-22T11:12:00;1.50;;;0.80;;
10721;SDS011;5412;59.450;18.124;2023-07-22T11:14:26;0.90;;;0.73;;
10721;SDS011;5412;59.450;18.124;2023-07-22T11:16:53;2.40;;;1.08;;
10721;SDS011;5412;59.450;18.124;2023-07-22T11:19:22;1.45;;;1.10;;
10721;SDS011;5412;59.450;18.124;2023-07-22T11:21:51;2.75;;;1.10;;
10721;SDS011;5412;59.450;18.124;2023-07-22T11:24:18;1.92;;;1.17;;
10721;SDS011;5412;59.450;18.124;2023-07-22T11:26:45;1.40;;;1.10;;
10721;SDS011;5412;59.450;18.124;2023-07-22T11:29:12;1.65;;;1.08;;
10721;SDS011;5412;59.450;18.124;2023-07-22T11:31:40;2.00;;;1.10;;
10721;SDS011;5412;59.450;18.124;2023-07-22T11:34:13;1.35;;;0.95;;
10721;SDS011;5412;59.450;18.124;2023-07-22T11:36:44;1.17;;;1.08;;
10721;SDS011;5412;59.450;18.124;2023-07-22T11:39:11;3.83;;;0.80;;
10721;SDS011;5412;59.450;18.124;2023-07-22T11:41:38;1.48;;;1.20;;
10721;SDS011;5412;59.450;18.124;2023-07-22T11:44:07;2.55;;;1.00;;
10721;SDS011;5412;59.450;18.124;2023-07-22T11:46:34;2.28;;;1.10;;
10721;SDS011;5412;59.450;18.124;2023-07-22T11:49:01;3.25;;;1.15;;
10721;SDS011;5412;59.450;18.124;2023-07-22T11:51:27;1.35;;;1.00;;
10721;SDS011;5412;59.450;18.124;2023-07-22T11:53:53;1.50;;;0.90;;
10721;SDS011;5412;59.450;18.124;2023-07-22T11:58:50;0.90;;;0.90;;
10721;SDS011;5412;59.450;18.124;2023-07-22T12:01:17;3.35;;;1.30;;
10721;SDS011;5412;59.450;18.124;2023-07-22T12:03:43;1.35;;;1.00;;
10721;SDS011;5412;59.450;18.124;2023-07-22T12:06:08;1.98;;;1.10;;
10721;SDS011;5412;59.450;18.124;2023-07-22T12:08:35;2.42;;;1.38;;
10721;SDS011;5412;59.450;18.124;2023-07-22T12:11:01;4.47;;;1.10;;
10721;SDS011;5412;59.450;18.124;2023-07-22T12:13:29;1.77;;;1.23;;
10721;SDS011;5412;59.450;18.124;2023-07-22T12:18:27;1.83;;;1.20;;
10721;SDS011;5412;59.450;18.124;2023-07-22T12:20:52;3.83;;;1.30;;
10721;SDS011;5412;59.450;18.124;2023-07-22T12:23:18;2.17;;;1.25;;
10721;SDS011;5412;59.450;18.124;2023-07-22T12:25:46;2.20;;;1.23;;
10721;SDS011;5412;59.450;18.124;2023-07-22T12:28:12;1.55;;;1.25;;
10721;SDS011;5412;59.450;18.124;2023-07-22T12:30:37;2.60;;;1.17;;
10721;SDS011;5412;59.450;18.124;2023-07-22T12:33:03;1.60;;;1.50;;
10721;SDS011;5412;59.450;18.124;2023-07-22T12:35:29;3.42;;;1.45;;
10721;SDS011;5412;59.450;18.124;2023-07-22T12:37:55;3.92;;;1.58;;
10721;SDS011;5412;59.450;18.124;2023-07-22T12:40:20;2.78;;;1.60;;
10721;SDS011;5412;59.450;18.124;2023-07-22T12:42:46;2.15;;;1.30;;
10721;SDS011;5412;59.450;18.124;2023-07-22T12:45:12;1.83;;;1.20;;
10721;SDS011;5412;59.450;18.124;2023-07-22T12:47:38;2.75;;;1.40;;
10721;SDS011;5412;59.450;18.124;2023-07-22T12:50:04;1.98;;;1.58;;
10721;SDS011;5412;59.450;18.124;2023-07-22T12:52:32;3.08;;;1.65;;
10721;SDS011;5412;59.450;18.124;2023-07-22T12:54:58;1.58;;;1.48;;
10721;SDS011;5412;59.450;18.124;2023-07-22T12:57:24;2.70;;;1.80;;
10721;SDS011;5412;59.450;18.124;2023-07-22T12:59:49;2.20;;;1.73;;
10721;SDS011;5412;59.450;18.124;2023-07-22T13:02:16;2.38;;;1.67;;
10721;SDS011;5412;59.450;18.124;2023-07-22T13:04:42;2.38;;;1.50;;
10721;SDS011;5412;59.450;18.124;2023-07-22T13:07:09;2.13;;;1.70;;
10721;SDS011;5412;59.450;18.124;2023-07-22T13:09:34;1.95;;;1.75;;
10721;SDS011;5412;59.450;18.124;2023-07-22T13:12:03;2.75;;;1.80;;
10721;SDS011;5412;59.450;18.124;2023-07-22T13:14:29;1.83;;;1.50;;
10721;SDS011;5412;59.450;18.124;2023-07-22T13:16:55;2.25;;;1.52;;
10721;SDS011;5412;59.450;18.124;2023-07-22T13:19:21;3.15;;;1.90;;
10721;SDS011;5412;59.450;18.124;2023-07-22T13:21:46;2.30;;;1.63;;
10721;SDS011;5412;59.450;18.124;2023-07-22T13:24:12;1.98;;;1.77;;
10721;SDS011;5412;59.450;18.124;2023-07-22T13:26:39;3.65;;;1.98;;
10721;SDS011;5412;59.450;18.124;2023-07-22T13:29:05;4.82;;;1.80;;
10721;SDS011;5412;59.450;18.124;2023-07-22T13:31:30;1.80;;;1.70;;
10721;SDS011;5412;59.450;18.124;2023-07-22T13:33:56;3.53;;;1.85;;
10721;SDS011;5412;59.450;18.124;2023-07-22T13:36:22;2.13;;;1.70;;
10721;SDS011;5412;59.450;18.124;2023-07-22T13:38:47;2.53;;;2.03;;
10721;SDS011;5412;59.450;18.124;2023-07-22T13:41:13;2.10;;;1.90;;
10721;SDS011;5412;59.450;18.124;2023-07-22T13:43:39;2.35;;;1.73;;
10721;SDS011;5412;59.450;18.124;2023-07-22T13:46:04;2.25;;;1.73;;
10721;SDS011;5412;59.450;18.124;2023-07-22T13:48:30;2.65;;;1.70;;
10721;SDS011;5412;59.450;18.124;2023-07-22T13:50:56;2.40;;;1.98;;
10721;SDS011;5412;59.450;18.124;2023-07-22T13:53:21;3.08;;;1.77;;
10721;SDS011;5412;59.450;18.124;2023-07-22T13:55:47;1.95;;;1.67;;
10721;SDS011;5412;59.450;18.124;2023-07-22T13:58:13;2.88;;;1.90;;
10721;SDS011;5412;59.450;18.124;2023-07-22T14:00:38;2.42;;;1.80;;
10721;SDS011;5412;59.450;18.124;2023-07-22T14:03:04;5.35;;;1.80;;
10721;SDS011;5412;59.450;18.124;2023-07-22T14:05:30;2.65;;;2.05;;
10721;SDS011;5412;59.450;18.124;2023-07-22T14:07:56;4.38;;;2.35;;
10721;SDS011;5412;59.450;18.124;2023-07-22T14:10:21;3.13;;;2.05;;
10721;SDS011;5412;59.450;18.124;2023-07-22T14:12:47;2.92;;;1.80;;
10721;SDS011;5412;59.450;18.124;2023-07-22T14:15:13;2.97;;;1.90;;
10721;SDS011;5412;59.450;18.124;2023-07-22T14:17:38;2.08;;;1.88;;
10721;SDS011;5412;59.450;18.124;2023-07-22T14:20:04;1.92;;;1.63;;
10721;SDS011;5412;59.450;18.124;2023-07-22T14:22:32;2.22;;;1.75;;
10721;SDS011;5412;59.450;18.124;2023-07-22T14:24:57;3.15;;;1.80;;
10721;SDS011;5412;59.450;18.124;2023-07-22T14:27:23;4.05;;;1.90;;
10721;SDS011;5412;59.450;18.124;2023-07-22T14:29:49;2.25;;;2.05;;
10721;SDS011;5412;59.450;18.124;2023-07-22T14:32:15;2.28;;;2.00;;
10721;SDS011;5412;59.450;18.124;2023-07-22T14:34:43;3.63;;;1.90;;
10721;SDS011;5412;59.450;18.124;2023-07-22T14:37:09;2.10;;;1.90;;
10721;SDS011;5412;59.450;18.124;2023-07-22T14:39:35;2.17;;;1.73;;
10721;SDS011;5412;59.450;18.124;2023-07-22T14:42:01;2.10;;;1.90;;
10721;SDS011;5412;59.450;18.124;2023-07-22T14:44:26;3.30;;;2.08;;
10721;SDS011;5412;59.450;18.124;2023-07-22T14:46:52;3.63;;;1.75;;
10721;SDS011;5412;59.450;18.124;2023-07-22T14:49:18;2.65;;;1.80;;
10721;SDS011;5412;59.450;18.124;2023-07-22T14:51:43;2.63;;;2.22;;
10721;SDS011;5412;59.450;18.124;2023-07-22T14:54:09;4.38;;;2.33;;
10721;SDS011;5412;59.450;18.124;2023-07-22T14:56:35;3.53;;;2.17;;
10721;SDS011;5412;59.450;18.124;2023-07-22T14:59:00;2.35;;;2.15;;
10721;SDS011;5412;59.450;18.124;2023-07-22T15:01:26;3.40;;;2.00;;
10721;SDS011;5412;59.450;18.124;2023-07-22T15:03:52;3.05;;;2.35;;